Time;durP1;ratioP1;P1;durP2;ratioP2;P2;SDS_P1;SDS_P2;PMS_P1;PMS_P2;Temp;Humidity;BMP_temperature;BMP_pressure;BME280_temperature;BME280_humidity;BME280_pressure;Samples;Min_cycle;Max_cycle;Signal;HPM_P1;HPM_P2
2022/05/19 00:01:30;;;;;;;8.30;4.85;;;18.00;1.00;;;;;;4988929;28;20400;-60
2022/05/19 00:03:56;;;;;;;9.90;5.00;;;18.00;99.90;;;;;;4992562;28;20410;-60
2022/05/19 00:06:22;;;;;;;10.25;5.18;;;18.20;99.90;;;;;;4990151;28;20438;-60
2022/05/19 00:08:47;;;;;;;9.05;4.80;;;18.40;99.90;;;;;;4989778;28;20500;-60
2022/05/19 00:11:16;;;;;;;8.70;5.00;;;18.50;99.90;;;;;;4989657;28;20438;-60
2022/05/19 00:13:43;;;;;;;11.13;5.00;;;18.50;99.90;;;;;;4982892;28;20410;-59
2022/05/19 00:16:09;;;;;;;8.38;4.97;;;18.60;99.90;;;;;;4986535;28;20438;-60
2022/05/19 00:18:36;;;;;;;8.75;4.60;;;18.60;99.90;;;;;;4988919;28;20434;-55
2022/05/19 00:21:02;;;;;;;10.60;5.20;;;18.50;99.90;;;;;;4989662;28;20394;-60
2022/05/19 00:23:27;;;;;;;8.63;4.85;;;18.60;99.90;;;;;;4989935;28;20410;-60
2022/05/19 00:25:53;;;;;;;10.50;5.40;;;18.60;99.90;;;;;;4989016;28;20435;-60
2022/05/19 00:28:19;;;;;;;8.90;5.20;;;18.50;99.90;;;;;;4989615;28;20383;-60
2022/05/19 00:30:45;;;;;;;10.40;5.65;;;18.40;99.90;;;;;;4989028;28;20902;-60
2022/05/19 00:33:11;;;;;;;9.13;4.93;;;18.40;99.90;;;;;;4989438;28;20848;-59
2022/05/19 00:35:38;;;;;;;8.48;4.57;;;18.40;99.90;;;;;;4989067;28;20406;-58
2022/05/19 00:38:04;;;;;;;9.40;4.90;;;18.40;96.70;;;;;;4990048;28;20751;-60
2022/05/19 00:40:30;;;;;;;9.50;4.80;;;18.40;94.70;;;;;;4988861;28;20409;-60
2022/05/19 00:42:56;;;;;;;9.57;4.82;;;18.40;92.20;;;;;;4988496;28;20417;-60
2022/05/19 00:45:31;;;;;;;9.93;5.20;;;18.40;86.10;;;;;;4989942;28;20426;-58
2022/05/19 00:48:08;;;;;;;8.80;5.13;;;18.30;99.90;;;;;;4989188;28;20390;-60
2022/05/19 00:50:49;;;;;;;9.63;5.10;;;18.30;99.90;;;;;;4988936;28;20783;-54
2022/05/19 00:53:38;;;;;;;9.43;5.00;;;18.30;96.10;;;;;;4988946;28;20387;-60
2022/05/19 00:56:12;;;;;;;9.70;4.75;;;18.40;97.10;;;;;;4988904;28;20418;-60
2022/05/19 00:58:58;;;;;;;8.77;4.73;;;18.30;92.80;;;;;;4986969;28;20410;-60
2022/05/19 01:01:24;;;;;;;8.93;4.80;;;17.80;94.10;;;;;;4988898;28;20418;-59
2022/05/19 01:03:55;;;;;;;10.80;5.50;;;18.10;99.00;;;;;;4988360;28;20457;-55
2022/05/19 01:06:22;;;;;;;10.48;5.00;;;18.00;99.90;;;;;;4989432;28;20739;-59
2022/05/19 01:08:57;;;;;;;9.35;4.97;;;18.00;99.90;;;;;;4988347;28;20752;-60
2022/05/19 01:11:23;;;;;;;8.90;5.10;;;17.90;99.90;;;;;;4989793;28;20413;-59
2022/05/19 01:13:49;;;;;;;8.63;5.30;;;17.90;99.90;;;;;;4988511;28;20469;-59
2022/05/19 01:16:15;;;;;;;8.57;5.10;;;17.90;99.90;;;;;;4989296;28;20410;-60
2022/05/19 01:18:42;;;;;;;9.70;4.95;;;17.90;99.90;;;;;;4988006;28;20402;-60
2022/05/19 01:21:11;;;;;;;9.32;4.90;;;17.90;97.50;;;;;;4989148;28;20394;-59
2022/05/19 01:23:56;;;;;;;10.00;5.28;;;17.80;95.10;;;;;;4987805;28;20422;-59
2022/05/19 01:26:27;;;;;;;10.30;5.13;;;17.80;95.70;;;;;;4989611;28;20423;-60
2022/05/19 01:28:54;;;;;;;9.02;5.03;;;17.60;99.90;;;;;;4988490;28;20402;-59
2022/05/19 01:31:35;;;;;;;8.70;5.43;;;17.70;99.90;;;;;;4989103;28;20425;-60
2022/05/19 01:34:03;;;;;;;10.25;4.97;;;17.60;99.90;;;;;;4989562;28;20393;-59
2022/05/19 01:36:29;;;;;;;9.10;4.90;;;17.40;99.90;;;;;;4989080;28;20446;-59
2022/05/19 01:39:03;;;;;;;9.48;4.80;;;17.50;99.90;;;;;;4972329;28;21039;-60
2022/05/19 01:41:48;;;;;;;11.10;5.15;;;17.30;99.90;;;;;;4988820;28;20393;-60
2022/05/19 01:44:20;;;;;;;8.73;4.72;;;17.30;99.90;;;;;;4989510;28;20406;-60
2022/05/19 01:46:50;;;;;;;9.48;4.50;;;17.20;99.90;;;;;;4988853;28;20910;-59
2022/05/19 01:49:30;;;;;;;9.90;5.67;;;17.10;99.90;;;;;;4989057;28;20422;-58
2022/05/19 01:52:19;;;;;;;9.50;4.60;;;17.00;99.90;;;;;;4986356;28;20449;-60
2022/05/19 01:55:27;;;;;;;11.82;5.00;;;17.00;99.90;;;;;;4990720;28;20521;-59
2022/05/19 01:57:58;;;;;;;8.25;4.70;;;17.00;99.90;;;;;;4974228;28;20426;-60
2022/05/19 02:00:26;;;;;;;8.73;4.95;;;16.90;99.90;;;;;;4992577;28;20397;-61
2022/05/19 02:03:00;;;;;;;7.78;4.65;;;16.80;99.90;;;;;;4991802;28;20886;-60
2022/05/19 02:05:56;;;;;;;9.40;4.70;;;16.80;99.90;;;;;;4991783;28;20437;-59
2022/05/19 02:08:30;;;;;;;9.10;4.97;;;16.80;99.90;;;;;;4990100;28;20425;-60
2022/05/19 02:10:59;;;;;;;8.43;5.13;;;16.70;99.90;;;;;;4999504;28;20410;-60
2022/05/19 02:13:28;;;;;;;9.70;5.10;;;16.70;99.90;;;;;;4992754;28;20386;-60
2022/05/19 02:15:55;;;;;;;9.70;4.68;;;16.70;99.90;;;;;;4989594;28;20665;-59
2022/05/19 02:18:24;;;;;;;10.30;5.10;;;16.70;99.90;;;;;;4989443;28;20405;-60
2022/05/19 02:20:54;;;;;;;9.15;4.90;;;16.80;99.90;;;;;;4992166;28;20409;-60
2022/05/19 02:23:20;;;;;;;8.77;4.93;;;16.80;99.90;;;;;;4991511;28;20461;-60
2022/05/19 02:25:51;;;;;;;8.23;4.90;;;16.70;99.90;;;;;;4992678;28;20437;-60
2022/05/19 02:28:34;;;;;;;10.05;5.10;;;17.30;1.00;;;;;;4991036;28;20453;-60
2022/05/19 02:31:00;;;;;;;11.25;6.13;;;16.40;1.00;;;;;;4980364;28;20403;-58
2022/05/19 02:33:26;;;;;;;10.65;5.70;;;16.30;1.00;;;;;;4991790;28;20398;-57
2022/05/19 02:35:52;;;;;;;8.88;4.90;;;16.10;1.00;;;;;;4986507;28;20418;-60
2022/05/19 02:38:19;;;;;;;9.73;5.07;;;16.10;1.00;;;;;;4990023;28;20469;-60
2022/05/19 02:40:46;;;;;;;11.40;4.97;;;16.10;1.00;;;;;;4991401;28;20482;-58
2022/05/19 02:43:13;;;;;;;13.10;5.30;;;16.20;1.00;;;;;;4993506;28;20391;-60
2022/05/19 02:45:40;;;;;;;9.50;5.50;;;16.00;99.90;;;;;;4988916;28;20425;-57
2022/05/19 02:48:08;;;;;;;8.80;5.53;;;15.90;99.90;;;;;;4998452;28;20453;-59
2022/05/19 02:50:34;;;;;;;10.40;5.95;;;15.80;99.90;;;;;;4993791;28;20391;-56
2022/05/19 02:53:00;;;;;;;9.95;5.45;;;15.60;1.00;;;;;;4991187;28;20744;-60
2022/05/19 02:55:25;;;;;;;10.13;5.35;;;15.70;1.00;;;;;;4992756;28;20477;-60
2022/05/19 02:57:51;;;;;;;12.23;5.77;;;15.60;1.00;;;;;;4991500;28;20950;-59
2022/05/19 03:00:25;;;;;;;10.55;5.20;;;15.50;1.00;;;;;;4995984;28;20827;-60
2022/05/19 03:02:54;;;;;;;9.25;5.15;;;15.50;1.00;;;;;;4991040;28;20394;-60
2022/05/19 03:05:24;;;;;;;10.30;6.00;;;15.70;1.00;;;;;;4989740;28;20416;-60
2022/05/19 03:07:50;;;;;;;12.10;6.32;;;15.70;99.90;;;;;;4993317;28;20416;-58
2022/05/19 03:10:17;;;;;;;11.00;5.60;;;15.70;99.90;;;;;;4991124;28;20499;-60
2022/05/19 03:12:42;;;;;;;9.83;6.20;;;15.70;99.90;;;;;;4989770;28;20453;-60
2022/05/19 03:15:10;;;;;;;11.10;5.88;;;15.90;99.90;;;;;;4991095;28;20884;-59
2022/05/19 03:17:38;;;;;;;9.93;6.28;;;15.90;99.90;;;;;;4973286;28;20398;-54
2022/05/19 03:20:14;;;;;;;12.20;6.60;;;15.90;99.90;;;;;;4991040;28;20463;-59
2022/05/19 03:22:40;;;;;;;10.65;5.90;;;15.70;1.00;;;;;;4985166;28;20747;-60
2022/05/19 03:25:07;;;;;;;12.15;6.70;;;15.80;1.00;;;;;;4991096;28;20394;-59
2022/05/19 03:27:36;;;;;;;12.27;6.40;;;15.80;1.00;;;;;;4984960;28;20391;-60
2022/05/19 03:30:04;;;;;;;12.20;6.70;;;15.70;1.00;;;;;;4989171;28;20477;-60
2022/05/19 03:32:29;;;;;;;10.27;6.37;;;15.70;1.00;;;;;;4991008;28;20453;-59
2022/05/19 03:34:55;;;;;;;13.80;7.10;;;15.70;1.00;;;;;;4990452;28;20382;-60
2022/05/19 03:37:21;;;;;;;12.27;7.22;;;15.70;1.00;;;;;;4990411;28;20872;-58
2022/05/19 03:39:46;;;;;;;14.00;7.40;;;15.60;1.00;;;;;;4990378;28;20493;-59
2022/05/19 03:42:12;;;;;;;14.38;7.03;;;15.60;1.00;;;;;;4990748;28;20394;-58
2022/05/19 03:44:38;;;;;;;12.97;6.60;;;15.60;1.00;;;;;;4990581;28;20391;-54
2022/05/19 03:47:04;;;;;;;14.60;7.80;;;15.50;1.00;;;;;;4990637;28;20411;-58
2022/05/19 03:49:31;;;;;;;11.38;7.60;;;15.50;61.90;;;;;;4990068;28;20517;-58
2022/05/19 03:51:57;;;;;;;12.90;7.70;;;15.60;1.00;;;;;;4989735;28;20614;-58
2022/05/19 03:54:23;;;;;;;10.73;6.90;;;15.70;1.00;;;;;;4990426;28;20930;-59
2022/05/19 03:56:48;;;;;;;15.68;7.07;;;15.80;99.90;;;;;;4989603;28;20414;-60
2022/05/19 03:59:14;;;;;;;13.23;6.53;;;15.80;99.90;;;;;;4990148;28;20434;-59
2022/05/19 04:01:40;;;;;;;13.18;7.75;;;16.00;1.00;;;;;;4989533;28;20383;-57
2022/05/19 04:04:06;;;;;;;10.33;7.03;;;16.30;1.00;;;;;;4990618;28;20402;-58
2022/05/19 04:06:34;;;;;;;10.57;6.87;;;16.10;1.00;;;;;;4990716;28;20431;-58
2022/05/19 04:09:04;;;;;;;12.40;6.93;;;16.20;1.00;;;;;;4989653;28;20423;-59
2022/05/19 04:11:37;;;;;;;12.13;6.70;;;16.10;1.00;;;;;;4990267;28;20399;-59
2022/05/19 04:14:15;;;;;;;16.23;8.30;;;16.10;1.00;;;;;;4989382;28;20402;-58
2022/05/19 04:16:40;;;;;;;12.55;7.40;;;16.20;1.00;;;;;;4988563;28;20517;-59
2022/05/19 04:19:06;;;;;;;11.75;6.70;;;16.20;1.00;;;;;;4990911;28;20477;-59
2022/05/19 04:21:32;;;;;;;10.90;6.20;;;16.20;99.90;;;;;;4989633;28;20406;-59
2022/05/19 04:24:06;;;;;;;10.83;6.27;;;16.10;99.90;;;;;;4989856;28;21063;-58
2022/05/19 04:26:43;;;;;;;10.20;6.13;;;16.10;99.90;;;;;;4990348;28;20398;-59
2022/05/19 04:29:09;;;;;;;9.35;6.22;;;16.30;99.90;;;;;;4984572;28;20386;-57
2022/05/19 04:31:35;;;;;;;9.60;5.83;;;16.30;99.90;;;;;;4990323;28;20402;-59
2022/05/19 04:34:01;;;;;;;10.60;6.25;;;16.40;99.90;;;;;;4968920;28;20475;-59
2022/05/19 04:36:31;;;;;;;14.20;6.70;;;16.50;99.90;;;;;;4989330;28;20429;-59
2022/05/19 04:38:57;;;;;;;11.63;6.30;;;16.70;99.90;;;;;;4982845;28;20402;-59
2022/05/19 04:41:22;;;;;;;11.80;6.70;;;16.70;99.90;;;;;;4989832;28;20402;-58
2022/05/19 04:43:54;;;;;;;11.15;6.90;;;16.70;99.90;;;;;;4988970;28;20478;-58
2022/05/19 04:46:19;;;;;;;11.38;7.20;;;16.90;99.90;;;;;;4988824;28;20411;-59
2022/05/19 04:48:45;;;;;;;11.93;7.00;;;17.10;99.90;;;;;;4988256;28;20772;-59
2022/05/19 04:51:10;;;;;;;12.43;7.60;;;17.30;99.90;;;;;;4990103;28;20463;-57
2022/05/19 04:53:36;;;;;;;14.07;7.07;;;17.50;99.90;;;;;;4989583;28;20397;-54
2022/05/19 04:56:12;;;;;;;15.07;7.80;;;17.70;99.90;;;;;;4989119;28;20411;-55
2022/05/19 04:58:59;;;;;;;13.93;7.10;;;18.40;99.90;;;;;;4989293;28;20406;-54
2022/05/19 05:01:30;;;;;;;12.98;7.38;;;19.00;99.90;;;;;;4984926;28;20398;-58
2022/05/19 05:04:10;;;;;;;13.60;7.30;;;19.70;32.30;;;;;;4986779;28;21222;-58
2022/05/19 05:06:39;;;;;;;14.50;7.85;;;20.40;1.00;;;;;;4986352;28;20438;-60
2022/05/19 05:09:36;;;;;;;14.60;8.55;;;21.10;1.00;;;;;;4988032;28;20478;-59
2022/05/19 05:12:07;;;;;;;18.40;8.20;;;21.90;1.00;;;;;;4939690;28;20457;-59
2022/05/19 05:14:38;;;;;;;16.20;7.50;;;22.70;1.00;;;;;;4983270;28;20756;-58
2022/05/19 05:17:04;;;;;;;11.57;7.80;;;23.40;1.00;;;;;;4986441;28;20418;-59
2022/05/19 05:19:30;;;;;;;16.93;7.80;;;23.80;1.00;;;;;;4988808;28;20414;-59
2022/05/19 05:22:04;;;;;;;15.00;7.80;;;23.50;1.00;;;;;;4988886;28;20406;-60
2022/05/19 05:24:35;;;;;;;13.00;6.93;;;23.10;1.00;;;;;;4989718;28;20569;-60
2022/05/19 05:27:24;;;;;;;14.13;7.53;;;22.70;1.00;;;;;;4991761;28;20420;-59
2022/05/19 05:30:04;;;;;;;13.65;7.30;;;22.40;1.00;;;;;;4978282;28;20601;-59
2022/05/19 05:32:29;;;;;;;12.18;6.85;;;22.30;1.00;;;;;;4988313;28;20922;-59
2022/05/19 05:35:18;;;;;;;13.93;7.00;;;22.10;1.00;;;;;;4991940;28;20387;-60
2022/05/19 05:37:52;;;;;;;13.35;6.93;;;22.30;1.00;;;;;;4990988;28;20480;-59
2022/05/19 05:40:18;;;;;;;13.93;6.72;;;22.70;1.00;;;;;;4992926;28;20827;-59
2022/05/19 05:42:43;;;;;;;10.30;6.20;;;22.90;1.00;;;;;;4992557;28;20402;-56
2022/05/19 05:45:09;;;;;;;11.40;6.38;;;23.20;1.00;;;;;;4992555;28;20406;-60
2022/05/19 05:47:35;;;;;;;13.03;6.50;;;23.40;1.00;;;;;;4991860;28;20414;-60
2022/05/19 05:50:01;;;;;;;9.77;6.50;;;23.70;1.00;;;;;;4991043;28;20407;-59
2022/05/19 05:52:26;;;;;;;10.80;6.53;;;24.30;1.00;;;;;;4992716;28;20469;-58
2022/05/19 05:54:53;;;;;;;11.27;6.37;;;24.90;99.90;;;;;;4991860;28;20748;-58
2022/05/19 05:57:19;;;;;;;12.20;6.60;;;25.10;99.90;;;;;;4993256;28;20430;-59
2022/05/19 05:59:45;;;;;;;11.50;6.60;;;25.50;99.90;;;;;;4994194;28;20403;-58
2022/05/19 06:02:10;;;;;;;9.95;6.45;;;26.00;99.90;;;;;;4991254;28;20406;-58
2022/05/19 06:04:36;;;;;;;13.45;6.50;;;26.10;99.90;;;;;;4987498;28;20430;-55
2022/05/19 06:07:02;;;;;;;10.85;6.35;;;26.10;99.90;;;;;;4989759;28;20483;-59
2022/05/19 06:09:27;;;;;;;11.80;5.93;;;26.50;99.90;;;;;;4991638;28;20485;-59
2022/05/19 06:11:53;;;;;;;13.38;6.78;;;26.70;99.90;;;;;;4991624;28;20390;-59
2022/05/19 06:14:19;;;;;;;13.00;7.18;;;26.40;99.90;;;;;;4992569;28;20493;-59
2022/05/19 06:16:45;;;;;;;11.30;6.22;;;26.00;99.90;;;;;;4989696;28;20521;-58
2022/05/19 06:19:11;;;;;;;13.27;6.70;;;26.10;99.90;;;;;;4992490;28;20489;-59
2022/05/19 06:21:39;;;;;;;11.93;6.63;;;26.50;99.90;;;;;;4996196;28;20875;-59
2022/05/19 06:24:10;;;;;;;15.73;6.50;;;27.30;1.00;;;;;;4989834;28;20796;-59
2022/05/19 06:26:37;;;;;;;11.38;7.10;;;28.80;1.00;;;;;;4991750;28;20887;-59
2022/05/19 06:29:03;;;;;;;11.18;6.32;;;29.80;1.00;;;;;;4990928;28;20800;-59
2022/05/19 06:31:31;;;;;;;14.02;6.50;;;29.60;1.00;;;;;;4991320;28;20433;-59
2022/05/19 06:33:58;;;;;;;9.63;6.97;;;29.80;1.00;;;;;;4990956;28;20404;-60
2022/05/19 06:36:24;;;;;;;9.38;6.22;;;29.90;1.00;;;;;;4991914;28;20794;-59
2022/05/19 06:38:50;;;;;;;9.07;5.43;;;29.80;1.00;;;;;;4991004;28;20469;-59
2022/05/19 06:43:59;;;;;;;11.43;5.80;;;29.10;1.00;;;;;;4990393;28;20530;-59
2022/05/19 06:46:26;;;;;;;10.17;6.10;;;29.20;1.00;;;;;;4992193;28;20861;-60
2022/05/19 06:48:52;;;;;;;14.20;6.65;;;29.50;1.00;;;;;;4991325;28;20390;-60
2022/05/19 06:51:18;;;;;;;11.00;6.78;;;29.90;1.00;;;;;;4995297;28;20453;-57
2022/05/19 06:53:43;;;;;;;10.90;7.72;;;30.00;1.00;;;;;;4991366;28;20872;-60
2022/05/19 06:56:10;;;;;;;9.80;7.10;;;31.10;1.00;;;;;;4991893;28;20413;-60
2022/05/19 06:58:36;;;;;;;10.60;7.28;;;31.80;1.00;;;;;;4991299;28;20426;-59
2022/05/19 07:01:02;;;;;;;11.85;6.38;;;31.90;1.00;;;;;;4989991;28;21011;-60
2022/05/19 07:03:28;;;;;;;11.37;6.60;;;31.30;1.00;;;;;;4989784;28;20468;-60
2022/05/19 07:05:53;;;;;;;10.13;5.27;;;32.00;1.00;;;;;;4989727;28;20892;-60
2022/05/19 07:08:19;;;;;;;10.57;4.87;;;32.20;1.00;;;;;;4989994;28;20859;-60
2022/05/19 07:10:45;;;;;;;10.18;4.85;;;32.00;1.00;;;;;;4989599;28;20411;-59
2022/05/19 07:13:12;;;;;;;10.07;4.57;;;32.10;1.00;;;;;;4990432;28;20379;-60
2022/05/19 07:15:38;;;;;;;10.10;5.90;;;32.10;1.00;;;;;;4990965;28;20892;-59
2022/05/19 07:18:04;;;;;;;9.40;5.50;;;31.80;1.00;;;;;;4990359;28;20399;-60
2022/05/19 07:20:47;;;;;;;9.73;4.40;;;31.50;1.00;;;;;;4990952;28;20383;-60
2022/05/19 07:23:25;;;;;;;10.70;4.50;;;31.20;1.00;;;;;;4985614;28;20444;-60
2022/05/19 07:25:51;;;;;;;9.43;4.40;;;31.30;1.00;;;;;;4990713;28;20482;-60
2022/05/19 07:28:21;;;;;;;7.60;4.20;;;31.70;1.00;;;;;;4991268;28;20437;-60
2022/05/19 07:30:48;;;;;;;12.63;4.40;;;32.40;1.00;;;;;;4990625;28;20418;-60
2022/05/19 07:33:15;;;;;;;10.23;4.85;;;32.80;1.00;;;;;;4991467;28;20449;-60
2022/05/19 07:35:42;;;;;;;12.70;4.35;;;33.00;1.00;;;;;;4990969;28;20414;-55
2022/05/19 07:38:08;;;;;;;9.55;3.85;;;33.30;1.00;;;;;;4988917;28;20411;-60
2022/05/19 07:40:34;;;;;;;11.23;5.37;;;33.00;1.00;;;;;;4989326;28;20437;-61
2022/05/19 07:43:35;;;;;;;11.47;5.50;;;;;;;;;;4993083;28;21081;-60
2022/05/19 07:45:46;;;;;;;12.40;4.80;;;;;;;;;;4989034;28;20415;-62
2022/05/19 07:48:12;;;;;;;9.43;4.67;;;;;;;;;;4990898;28;20415;-60
2022/05/19 07:50:39;;;;;;;10.70;4.50;;;;;;;;;;4990778;28;20383;-60
2022/05/19 07:53:05;;;;;;;9.30;4.10;;;;;;;;;;4989804;28;20410;-61
2022/05/19 07:55:31;;;;;;;9.93;4.05;;;;;;;;;;4992781;28;20410;-61
2022/05/19 07:57:57;;;;;;;11.40;4.60;;;;;;;;;;4989854;28;20391;-62
2022/05/19 08:00:23;;;;;;;10.57;4.50;;;;;;;;;;4990840;28;20410;-62
2022/05/19 08:02:49;;;;;;;8.43;3.75;;;;;;;;;;4989804;28;20386;-61
2022/05/19 08:05:15;;;;;;;9.93;3.80;;;;;;;;;;5000224;28;20870;-62
2022/05/19 08:07:41;;;;;;;9.95;4.45;;;;;;;;;;4990504;28;20381;-56
2022/05/19 08:10:26;;;;;;;9.48;4.95;;;;;;;;;;5000098;28;20755;-62
2022/05/19 08:15:38;;;;;;;9.60;4.30;;;;;;;;;;4991500;28;20412;-63
2022/05/19 08:18:07;;;;;;;10.25;4.65;;;;;;;;;;4995783;28;20441;-62
2022/05/19 08:20:34;;;;;;;10.10;4.00;;;;;;;;;;4990814;28;20387;-62
2022/05/19 08:23:00;;;;;;;8.50;5.50;;;;;;;;;;4988885;28;20391;-62
2022/05/19 08:25:27;;;;;;;8.80;4.20;;;;;;;;;;4994749;28;20386;-60
2022/05/19 08:27:54;;;;;;;9.33;4.50;;;;;;;;;;4989541;28;20421;-61
2022/05/19 08:30:20;;;;;;;7.50;3.92;;;;;;;;;;4990578;28;20490;-61
2022/05/19 08:32:46;;;;;;;7.90;3.90;;;;;;;;;;4989983;28;20381;-62
2022/05/19 08:35:12;;;;;;;8.30;4.00;;;;;;;;;;4990289;28;20374;-61
2022/05/19 08:37:39;;;;;;;10.30;4.80;;;;;;;;;;4990078;28;20427;-62
2022/05/19 08:40:05;;;;;;;9.43;3.80;;;;;;;;;;4989364;28;20912;-62
2022/05/19 08:42:33;;;;;;;10.00;4.72;;;;;;;;;;4990446;28;20454;-62
2022/05/19 08:45:00;;;;;;;7.60;4.70;;;;;;;;;;4989896;28;20396;-62
2022/05/19 08:47:28;;;;;;;12.20;4.55;;;;;;;;;;4990582;28;20379;-58
2022/05/19 08:50:17;;;;;;;8.05;4.60;;;;;;;;;;4986491;28;20382;-61
2022/05/19 08:52:46;;;;;;;11.00;4.13;;;;;;;;;;4992875;28;20516;-55
2022/05/19 08:55:14;;;;;;;7.18;4.05;;;;;;;;;;4989973;28;20394;-61
2022/05/19 08:57:50;;;;;;;9.30;4.05;;;38.80;99.90;;;;;;4992114;28;20410;-61
2022/05/19 09:00:25;;;;;;;7.50;4.40;;;39.70;32.50;;;;;;4991744;28;20389;-61
2022/05/19 09:03:19;;;;;;;10.43;4.47;;;39.90;18.90;;;;;;4989774;28;20876;-62
2022/05/19 09:06:02;;;;;;;9.50;5.20;;;39.90;9.30;;;;;;4989287;28;20402;-56
2022/05/19 09:08:47;;;;;;;9.50;4.50;;;39.70;1.00;;;;;;4990518;28;20410;-59
2022/05/19 09:11:14;;;;;;;7.65;3.90;;;39.70;1.00;;;;;;4987376;28;20494;-62
2022/05/19 09:13:43;;;;;;;7.53;4.25;;;;;;;;;;4989409;28;20430;-62
2022/05/19 09:16:14;;;;;;;7.67;3.50;;;39.80;1.00;;;;;;4989059;28;20406;-63
2022/05/19 09:19:02;;;;;;;9.30;6.00;;;40.60;1.00;;;;;;4989354;28;21376;-61
2022/05/19 09:21:27;;;;;;;10.15;6.15;;;38.70;1.00;;;;;;4982992;28;20865;-61
2022/05/19 09:23:53;;;;;;;8.30;5.40;;;38.10;1.00;;;;;;4988889;28;20382;-61
2022/05/19 09:26:52;;;;;;;8.57;5.80;;;38.30;1.00;;;;;;4989889;28;20493;-62
2022/05/19 09:29:22;;;;;;;9.30;6.65;;;37.70;1.00;;;;;;4989668;28;20395;-61
2022/05/19 09:31:52;;;;;;;8.20;6.18;;;37.20;1.00;;;;;;4988773;28;20859;-61
2022/05/19 09:34:21;;;;;;;8.00;5.80;;;38.00;1.00;;;;;;4989777;28;20542;-60
2022/05/19 09:37:02;;;;;;;7.80;4.63;;;39.10;1.00;;;;;;4988985;28;20410;-60
2022/05/19 09:39:33;;;;;;;10.55;7.80;;;39.40;1.00;;;;;;4989603;28;20410;-60
2022/05/19 09:42:08;;;;;;;9.50;7.07;;;37.70;1.00;;;;;;4982971;28;20470;-61
2022/05/19 09:44:42;;;;;;;8.10;7.10;;;38.10;1.00;;;;;;4989456;28;20411;-61
2022/05/19 09:47:19;;;;;;;9.05;6.90;;;38.00;1.00;;;;;;4988965;28;20383;-61
2022/05/19 09:49:53;;;;;;;8.60;6.43;;;37.70;1.00;;;;;;4988706;28;20383;-56
2022/05/19 09:52:24;;;;;;;9.95;7.93;;;37.80;1.00;;;;;;4989335;28;20398;-60
2022/05/19 09:55:05;;;;;;;8.50;6.60;;;37.20;1.00;;;;;;4988475;28;20393;-61
2022/05/19 09:57:43;;;;;;;11.98;6.40;;;37.60;1.00;;;;;;4989375;28;20407;-61
2022/05/19 10:00:43;;;;;;;8.70;6.50;;;37.80;1.00;;;;;;4988262;28;20402;-61
2022/05/19 10:03:46;;;;;;;8.88;7.45;;;37.30;1.00;;;;;;4973055;28;20469;-61
2022/05/19 10:06:18;;;;;;;8.50;7.60;;;37.90;1.00;;;;;;4971467;28;20477;-61
2022/05/19 10:08:45;;;;;;;12.00;5.00;;;37.00;1.00;;;;;;4972060;28;20407;-56
2022/05/19 10:11:14;;;;;;;8.55;5.38;;;37.00;1.00;;;;;;5007293;28;20417;-61
2022/05/19 10:13:46;;;;;;;8.82;5.50;;;37.70;1.00;;;;;;5004297;28;20808;-61
2022/05/19 10:16:55;;;;;;;11.55;9.07;;;37.80;1.00;;;;;;4993030;28;20414;-61
2022/05/19 10:19:59;;;;;;;9.85;8.70;;;38.30;1.00;;;;;;4991894;28;20403;-61
2022/05/19 10:22:57;;;;;;;8.50;3.65;;;38.50;1.00;;;;;;4921989;29;20408;-61
2022/05/19 10:25:35;;;;;;;8.65;4.13;;;38.90;1.00;;;;;;4959098;28;20548;-59
2022/05/19 10:31:34;;;;;;;11.10;6.30;;;37.80;1.00;;;;;;5011612;28;20969;-61
2022/05/19 10:34:33;;;;;;;10.88;6.40;;;37.30;1.00;;;;;;5010751;28;20852;-61
2022/05/19 10:37:30;;;;;;;12.20;8.40;;;36.10;99.90;;;;;;5010820;28;20409;-59
2022/05/19 10:40:12;;;;;;;14.10;10.40;;;34.60;99.90;;;;;;5010834;28;20929;-60
2022/05/19 10:42:53;;;;;;;10.35;7.28;;;33.70;99.90;;;;;;5011244;28;20428;-60
2022/05/19 10:45:21;;;;;;;9.98;8.65;;;33.70;99.90;;;;;;5011917;28;20480;-60
2022/05/19 10:48:01;;;;;;;11.30;9.98;;;34.00;99.90;;;;;;5010865;28;20442;-56
2022/05/19 10:50:30;;;;;;;13.80;7.40;;;33.90;99.90;;;;;;4995206;28;20931;-59
2022/05/19 10:53:14;;;;;;;10.00;6.63;;;34.10;99.90;;;;;;4992206;28;20398;-60
2022/05/19 10:56:03;;;;;;;9.95;6.60;;;33.90;99.90;;;;;;4992301;28;20502;-60
2022/05/19 10:58:48;;;;;;;9.48;6.30;;;34.10;99.90;;;;;;4992249;28;20891;-60
2022/05/19 11:01:35;;;;;;;9.50;6.53;;;34.10;99.90;;;;;;4991998;28;20410;-61
2022/05/19 11:04:55;;;;;;;10.38;7.65;;;34.10;99.90;;;;;;4991176;28;20464;-62
2022/05/19 11:07:41;;;;;;;8.93;7.55;;;34.10;99.90;;;;;;4906595;29;20402;-59
2022/05/19 11:10:21;;;;;;;10.90;9.70;;;34.40;99.90;;;;;;4958628;28;20410;-58
2022/05/19 11:13:14;;;;;;;11.77;8.60;;;34.40;99.90;;;;;;4987966;28;20437;-56
2022/05/19 11:15:42;;;;;;;14.00;8.80;;;34.20;99.90;;;;;;4987062;28;20406;-62
2022/05/19 11:18:32;;;;;;;10.95;9.95;;;33.80;99.90;;;;;;4990171;28;20887;-61
2022/05/19 11:21:03;;;;;;;11.27;10.13;;;32.90;99.90;;;;;;4987878;28;20407;-61
2022/05/19 11:23:38;;;;;;;10.02;7.03;;;32.40;99.90;;;;;;4991452;28;20499;-61
2022/05/19 11:26:38;;;;;;;8.23;5.55;;;32.70;99.90;;;;;;4989966;28;21011;-62
2022/05/19 11:29:06;;;;;;;8.45;6.28;;;33.00;99.90;;;;;;4982652;28;20480;-62
2022/05/19 11:32:27;;;;;;;9.82;6.28;;;33.60;99.90;;;;;;5006714;28;20426;-60
2022/05/19 11:35:04;;;;;;;8.82;5.75;;;33.70;99.90;;;;;;4897628;29;20419;-61
2022/05/19 11:37:44;;;;;;;12.32;5.80;;;33.80;99.90;;;;;;4893500;29;20897;-60
2022/05/19 11:40:25;;;;;;;11.43;5.95;;;33.80;99.90;;;;;;4953263;28;20407;-61
2022/05/19 11:42:55;;;;;;;9.03;5.73;;;34.00;99.90;;;;;;4991990;28;20401;-61
2022/05/19 11:45:24;;;;;;;9.13;5.47;;;34.40;99.90;;;;;;4988250;28;20390;-60
2022/05/19 11:56:35;;;;;;;10.07;6.28;;;34.20;99.90;;;;;;4992284;28;20481;-61
2022/05/19 11:59:00;;;;;;;8.02;5.20;;;34.10;99.90;;;;;;4991298;28;20395;-60
2022/05/19 12:01:32;;;;;;;9.50;5.45;;;34.40;99.90;;;;;;4991227;28;20518;-60
2022/05/19 12:04:17;;;;;;;9.32;5.50;;;34.50;99.90;;;;;;4971584;28;20387;-61
2022/05/19 12:07:15;;;;;;;8.35;5.05;;;34.70;99.90;;;;;;4985818;28;20391;-57
2022/05/19 12:09:46;;;;;;;8.77;4.90;;;34.50;99.90;;;;;;4988641;28;20414;-60
2022/05/19 12:12:29;;;;;;;9.45;5.15;;;34.20;99.90;;;;;;4989147;28;21158;-59
2022/05/19 12:15:03;;;;;;;9.43;5.55;;;34.00;99.90;;;;;;4984685;28;20413;-59
2022/05/19 12:17:41;;;;;;;9.07;5.13;;;34.00;99.90;;;;;;4988252;28;20459;-61
2022/05/19 12:20:51;;;;;;;10.05;5.95;;;34.00;99.90;;;;;;4988686;28;20386;-61
2022/05/19 12:23:24;;;;;;;8.57;5.10;;;34.10;99.90;;;;;;4988820;28;20418;-60
2022/05/19 12:25:54;;;;;;;10.80;5.85;;;34.30;99.90;;;;;;4988585;28;20401;-61
2022/05/19 12:28:20;;;;;;;8.20;5.10;;;34.50;99.90;;;;;;4982651;28;20411;-58
2022/05/19 12:33:48;;;;;;;9.37;5.67;;;34.90;99.90;;;;;;4989571;28;20502;-61
2022/05/19 12:36:30;;;;;;;9.53;6.17;;;34.80;99.90;;;;;;4986624;28;20505;-59
2022/05/19 12:39:24;;;;;;;9.40;5.40;;;34.30;99.90;;;;;;4987685;28;20766;-61
2022/05/19 12:41:50;;;;;;;10.52;5.60;;;34.20;99.90;;;;;;4984554;28;20417;-61
2022/05/19 12:44:40;;;;;;;9.47;5.00;;;34.10;99.90;;;;;;4988232;28;20444;-60
2022/05/19 12:47:10;;;;;;;8.48;5.43;;;34.70;99.90;;;;;;4988171;28;20426;-58
2022/05/19 12:49:37;;;;;;;8.93;5.40;;;34.50;99.90;;;;;;4986367;28;20456;-61
2022/05/19 12:52:19;;;;;;;9.80;5.60;;;34.30;99.90;;;;;;4987966;28;20404;-60
2022/05/19 12:55:22;;;;;;;9.65;5.82;;;33.80;99.90;;;;;;4986233;28;20422;-56
2022/05/19 12:57:48;;;;;;;12.40;6.00;;;33.90;99.90;;;;;;4962436;28;20767;-57
2022/05/19 13:00:35;;;;;;;12.50;6.10;;;33.90;99.90;;;;;;4989968;28;20406;-61
2022/05/19 13:03:17;;;;;;;8.93;5.63;;;33.80;99.90;;;;;;4987428;28;20478;-60
2022/05/19 13:05:53;;;;;;;11.90;7.15;;;33.90;99.90;;;;;;4984276;28;20884;-57
2022/05/19 13:08:34;;;;;;;10.57;6.50;;;34.20;99.90;;;;;;4986767;28;20406;-60
2022/05/19 13:11:35;;;;;;;10.63;6.13;;;34.20;99.90;;;;;;4983186;28;20414;-62
2022/05/19 13:14:15;;;;;;;11.23;6.50;;;34.30;99.90;;;;;;4986502;28;20394;-61
2022/05/19 13:16:44;;;;;;;11.48;5.88;;;34.40;99.90;;;;;;4984747;28;20812;-61
2022/05/19 13:19:28;;;;;;;10.80;5.88;;;34.50;99.90;;;;;;4987440;28;20489;-61
2022/05/19 13:22:25;;;;;;;9.73;5.78;;;34.40;99.90;;;;;;4986046;28;20422;-60
2022/05/19 13:24:52;;;;;;;10.93;7.03;;;34.50;99.90;;;;;;4983252;28;20496;-61
2022/05/19 13:30:43;;;;;;;12.07;9.20;;;33.50;99.90;;;;;;4986253;28;20390;-61
2022/05/19 13:33:16;;;;;;;11.53;8.37;;;33.00;99.90;;;;;;4985972;28;20565;-60
2022/05/19 13:35:42;;;;;;;11.87;10.10;;;33.00;99.90;;;;;;4987372;28;20437;-59
2022/05/19 13:38:22;;;;;;;12.20;9.50;;;32.70;99.90;;;;;;4985862;28;20557;-61
2022/05/19 13:40:50;;;;;;;15.68;10.55;;;32.70;99.90;;;;;;4986725;28;20383;-56
2022/05/19 13:43:23;;;;;;;11.13;9.40;;;32.90;99.90;;;;;;4982147;28;20491;-60
2022/05/19 13:45:56;;;;;;;10.70;8.48;;;33.40;99.90;;;;;;4987576;28;20453;-61
2022/05/19 13:48:42;;;;;;;13.05;8.50;;;33.80;99.90;;;;;;4986595;28;20415;-59